createdAt,value
2022-11-29T00:01:53.078Z,61.10
2022-11-29T00:04:21.114Z,66.00
2022-11-29T00:06:50.446Z,74.03
2022-11-29T00:09:18.992Z,72.50
2022-11-29T00:12:04.473Z,72.50
2022-11-29T00:14:32.422Z,72.70
2022-11-29T00:17:02.370Z,64.97
2022-11-29T00:19:30.896Z,74.17
2022-11-29T00:22:00.734Z,70.33
2022-11-29T00:24:28.979Z,63.20
2022-11-29T00:26:56.925Z,65.07
2022-11-29T00:29:24.848Z,69.87
2022-11-29T00:31:52.761Z,68.57
2022-11-29T00:34:20.680Z,69.27
2022-11-29T00:36:48.925Z,65.93
2022-11-29T00:39:18.290Z,76.60
2022-11-29T00:41:46.372Z,65.40
2022-11-29T00:44:19.842Z,76.67
2022-11-29T00:46:49.016Z,63.33
2022-11-29T00:49:17.261Z,70.13
2022-11-29T00:51:45.270Z,67.50
2022-11-29T00:54:13.361Z,67.17
2022-11-29T00:56:42.900Z,67.87
2022-11-29T00:59:11.014Z,63.40
2022-11-29T01:01:39.003Z,66.43
2022-11-29T01:04:07.069Z,66.40
2022-11-29T01:06:35.036Z,63.50
2022-11-29T01:09:03.003Z,72.33
2022-11-29T01:11:31.038Z,66.90
2022-11-29T01:14:02.371Z,73.27
2022-11-29T01:16:31.922Z,66.30
2022-11-29T01:19:00.402Z,68.03
2022-11-29T01:21:28.370Z,61.53
2022-11-29T01:23:56.377Z,70.73
2022-11-29T01:26:26.477Z,66.50
2022-11-29T01:28:56.463Z,67.20
2022-11-29T01:31:28.261Z,69.93
2022-11-29T01:33:56.663Z,70.97
2022-11-29T01:36:25.205Z,69.70
2022-11-29T01:38:53.645Z,70.40
2022-11-29T01:41:23.475Z,69.97
2022-11-29T01:44:03.421Z,74.10
2022-11-29T01:46:34.456Z,72.00
2022-11-29T01:49:07.119Z,74.37
2022-11-29T01:51:36.895Z,77.80
2022-11-29T01:54:05.670Z,72.97
2022-11-29T01:56:35.632Z,69.87
2022-11-29T01:59:06.940Z,79.63
2022-11-29T02:01:37.091Z,77.87
2022-11-29T02:04:05.758Z,76.00
2022-11-29T02:06:33.989Z,81.83
2022-11-29T02:09:02.593Z,82.10
2022-11-29T02:11:57.405Z,75.90
2022-11-29T02:14:41.736Z,92.00
2022-11-29T02:17:19.597Z,76.17
2022-11-29T02:20:10.127Z,75.53
2022-11-29T02:22:42.217Z,75.47
2022-11-29T02:25:32.977Z,70.40
2022-11-29T02:28:33.906Z,72.60
2022-11-29T02:31:44.286Z,73.37
2022-11-29T02:34:47.702Z,67.47
2022-11-29T02:37:33.622Z,70.23
2022-11-29T02:40:17.633Z,71.07
2022-11-29T02:43:25.860Z,67.10
2022-11-29T02:46:11.830Z,62.10
2022-11-29T02:48:54.486Z,68.50
2022-11-29T02:51:32.097Z,62.47
2022-11-29T02:54:07.632Z,65.10
2022-11-29T02:56:42.588Z,63.20
2022-11-29T02:59:16.844Z,62.40
2022-11-29T03:01:54.378Z,69.37
2022-11-29T03:04:31.719Z,74.47
2022-11-29T03:07:06.949Z,70.17
2022-11-29T03:09:40.658Z,71.13
2022-11-29T03:12:17.801Z,68.30
2022-11-29T03:14:56.822Z,63.53
2022-11-29T03:17:35.193Z,64.00
2022-11-29T03:20:29.557Z,69.87
2022-11-29T03:23:15.647Z,72.43
2022-11-29T03:25:46.921Z,70.00
2022-11-29T03:28:19.871Z,62.63
2022-11-29T03:30:56.782Z,65.53
2022-11-29T03:33:33.709Z,75.47
2022-11-29T03:36:09.764Z,76.00
2022-11-29T03:38:42.100Z,71.70
2022-11-29T03:41:26.865Z,68.97
2022-11-29T03:44:00.901Z,68.30
2022-11-29T03:46:36.029Z,75.03
2022-11-29T03:49:08.450Z,59.10
2022-11-29T03:51:50.276Z,78.17
2022-11-29T03:54:25.302Z,72.47
2022-11-29T03:56:53.962Z,81.77
2022-11-29T03:59:38.919Z,90.60
2022-11-29T04:02:38.327Z,75.23
2022-11-29T04:05:38.285Z,72.70
2022-11-29T04:08:32.917Z,64.70
2022-11-29T04:11:31.300Z,78.70
2022-11-29T04:14:39.852Z,73.27
2022-11-29T04:17:57.010Z,70.27
2022-11-29T04:20:54.111Z,72.53
2022-11-29T04:23:57.208Z,66.70
2022-11-29T04:27:06.044Z,70.80
2022-11-29T04:30:03.889Z,71.07
2022-11-29T04:33:16.589Z,75.70
2022-11-29T04:36:04.964Z,71.73
2022-11-29T04:39:01.018Z,71.47
2022-11-29T04:41:58.689Z,80.60
2022-11-29T04:44:48.774Z,74.03
2022-11-29T04:47:42.399Z,79.10
2022-11-29T04:50:20.014Z,69.20
2022-11-29T04:53:05.460Z,71.10
2022-11-29T04:55:44.027Z,66.97
2022-11-29T04:58:22.633Z,77.00
2022-11-29T05:01:00.687Z,79.57
2022-11-29T05:03:38.373Z,84.23
2022-11-29T05:06:17.571Z,79.90
2022-11-29T05:08:51.935Z,74.43
2022-11-29T05:11:30.697Z,80.20
2022-11-29T05:14:05.825Z,81.43
2022-11-29T05:16:46.398Z,81.00
2022-11-29T05:19:47.037Z,76.50
2022-11-29T05:22:26.564Z,80.67
2022-11-29T05:25:02.634Z,87.60
2022-11-29T05:27:44.673Z,86.90
2022-11-29T05:30:15.330Z,90.30
2022-11-29T05:32:56.761Z,67.73
2022-11-29T05:35:48.706Z,83.80
2022-11-29T05:38:40.217Z,63.20
2022-11-29T05:41:20.778Z,68.20
2022-11-29T05:44:03.914Z,76.50
2022-11-29T05:46:37.318Z,66.67
2022-11-29T05:49:21.998Z,74.33
2022-11-29T05:51:59.280Z,79.97
2022-11-29T05:54:31.977Z,73.47
2022-11-29T05:57:13.819Z,63.70
2022-11-29T05:59:43.674Z,64.80
2022-11-29T06:02:23.897Z,74.73
2022-11-29T06:05:04.552Z,67.87
2022-11-29T06:07:39.983Z,97.37
2022-11-29T06:10:12.566Z,68.50
2022-11-29T06:12:43.333Z,76.13
2022-11-29T06:15:31.016Z,70.43
2022-11-29T06:18:19.548Z,81.63
2022-11-29T06:21:03.399Z,67.47
2022-11-29T06:23:48.374Z,73.53
2022-11-29T06:26:30.385Z,73.47
2022-11-29T06:29:15.765Z,65.87
2022-11-29T06:31:47.549Z,77.80
2022-11-29T06:34:30.522Z,68.40
2022-11-29T06:37:06.077Z,75.07
2022-11-29T06:39:34.710Z,55.70
2022-11-29T06:42:02.639Z,75.00
2022-11-29T06:44:31.136Z,80.23
2022-11-29T06:47:06.313Z,75.37
2022-11-29T06:49:39.676Z,57.27
2022-11-29T06:52:20.233Z,63.87
2022-11-29T06:55:10.986Z,65.97
2022-11-29T06:57:50.460Z,65.53
2022-11-29T07:00:22.288Z,66.73
2022-11-29T07:03:07.529Z,61.27
2022-11-29T07:05:36.922Z,69.17
2022-11-29T07:08:11.350Z,74.47
2022-11-29T07:10:41.802Z,60.63
2022-11-29T07:13:12.642Z,58.63
2022-11-29T07:15:43.780Z,69.70
2022-11-29T07:18:22.558Z,64.40
2022-11-29T07:21:03.995Z,68.70
2022-11-29T07:23:37.180Z,66.87
2022-11-29T07:26:16.242Z,59.00
2022-11-29T07:28:56.669Z,68.93
2022-11-29T07:31:34.971Z,73.60
2022-11-29T07:34:11.058Z,60.57
2022-11-29T07:36:46.464Z,62.70
2022-11-29T07:39:25.665Z,69.33
2022-11-29T07:42:03.310Z,66.33
2022-11-29T07:44:39.557Z,63.73
2022-11-29T07:47:08.985Z,63.40
2022-11-29T07:49:36.933Z,55.43
2022-11-29T07:52:04.955Z,55.97
2022-11-29T07:54:34.246Z,52.07
2022-11-29T07:57:02.205Z,60.20
2022-11-29T07:59:30.194Z,81.40
2022-11-29T08:01:58.916Z,62.10
2022-11-29T08:04:27.207Z,59.40
2022-11-29T08:06:55.266Z,52.40
2022-11-29T08:09:23.226Z,60.10
2022-11-29T08:11:52.532Z,53.30
2022-11-29T08:14:20.470Z,52.80
2022-11-29T08:16:48.531Z,53.70
2022-11-29T08:19:16.518Z,58.47
2022-11-29T08:21:46.905Z,54.83
2022-11-29T08:24:14.913Z,53.70
2022-11-29T08:26:43.081Z,57.13
2022-11-29T08:29:12.517Z,53.53
2022-11-29T08:31:40.732Z,65.27
2022-11-29T08:34:10.541Z,63.17
2022-11-29T08:36:39.015Z,54.97
2022-11-29T08:39:09.539Z,50.93
2022-11-29T08:41:37.819Z,55.83
2022-11-29T08:44:06.378Z,54.63
2022-11-29T08:46:53.356Z,49.93
2022-11-29T08:49:21.393Z,52.60
2022-11-29T08:51:49.382Z,56.40
2022-11-29T08:54:16.417Z,56.20
2022-11-29T08:59:32.301Z,57.53
2022-11-29T09:02:01.779Z,51.40
2022-11-29T09:04:29.908Z,47.20
2022-11-29T09:06:57.885Z,48.37
2022-11-29T09:09:25.842Z,64.27
2022-11-29T09:11:53.816Z,57.30
2022-11-29T09:14:28.799Z,55.97
2022-11-29T09:16:57.031Z,62.47
2022-11-29T09:19:26.395Z,90.80
2022-11-29T09:21:54.394Z,101.47
2022-11-29T09:24:22.316Z,62.57
2022-11-29T09:26:50.269Z,62.53
2022-11-29T09:29:18.640Z,59.50
2022-11-29T09:31:46.701Z,68.57
2022-11-29T09:34:15.333Z,61.30
2022-11-29T09:36:45.021Z,64.63
2022-11-29T09:39:13.373Z,56.70
2022-11-29T09:42:04.479Z,55.83
2022-11-29T09:44:45.058Z,51.93
2022-11-29T09:47:27.788Z,55.30
2022-11-29T09:50:10.217Z,64.87
2022-11-29T09:52:47.461Z,61.77
2022-11-29T09:55:32.227Z,61.83
2022-11-29T09:58:03.708Z,64.93
2022-11-29T10:00:45.320Z,66.33
2022-11-29T10:03:19.547Z,61.73
2022-11-29T10:05:52.366Z,58.03
2022-11-29T10:08:27.956Z,67.77
2022-11-29T10:11:10.772Z,59.47
2022-11-29T10:13:40.601Z,61.77
2022-11-29T10:16:16.116Z,64.03
2022-11-29T10:18:49.340Z,61.80
2022-11-29T10:21:22.672Z,61.37
2022-11-29T10:23:55.069Z,61.90
2022-11-29T10:26:25.859Z,56.80
2022-11-29T10:28:57.540Z,58.53
2022-11-29T10:31:28.149Z,68.60
2022-11-29T10:33:57.441Z,64.17
2022-11-29T10:36:28.805Z,69.87
2022-11-29T10:39:02.860Z,80.47
2022-11-29T10:41:30.970Z,109.90
2022-11-29T10:44:00.787Z,58.10
2022-11-29T10:46:31.826Z,61.87
2022-11-29T10:49:02.617Z,61.07
2022-11-29T10:51:31.173Z,57.43
2022-11-29T10:54:13.988Z,82.93
2022-11-29T10:56:42.693Z,84.67
2022-11-29T10:59:21.953Z,68.63
2022-11-29T11:01:50.141Z,55.70
2022-11-29T11:04:29.449Z,53.10
2022-11-29T11:07:01.172Z,56.33
2022-11-29T11:09:40.139Z,65.77
2022-11-29T11:12:20.737Z,50.33
2022-11-29T11:14:49.028Z,50.93
2022-11-29T11:17:25.848Z,54.50
2022-11-29T11:19:58.530Z,57.97
2022-11-29T11:22:27.828Z,58.47
2022-11-29T11:25:02.494Z,52.57
2022-11-29T11:27:33.012Z,57.53
2022-11-29T11:30:01.613Z,58.83
2022-11-29T11:32:30.126Z,48.40
2022-11-29T11:34:59.230Z,52.97
2022-11-29T11:37:29.281Z,56.50
2022-11-29T11:39:59.716Z,58.67
2022-11-29T11:42:38.731Z,56.73
2022-11-29T11:45:26.596Z,48.80
2022-11-29T11:47:58.277Z,51.20
2022-11-29T11:50:32.473Z,48.37
2022-11-29T11:53:03.479Z,60.70
2022-11-29T11:55:35.677Z,53.03
2022-11-29T11:58:22.399Z,57.70
2022-11-29T12:01:07.138Z,51.87
2022-11-29T12:03:52.523Z,58.53
2022-11-29T12:06:29.374Z,48.27
2022-11-29T12:09:04.889Z,49.53
2022-11-29T12:11:40.193Z,44.97
2022-11-29T12:14:18.694Z,49.67
2022-11-29T12:16:48.723Z,54.07
2022-11-29T12:19:23.055Z,50.20
2022-11-29T12:21:56.944Z,53.67
2022-11-29T12:24:29.603Z,51.20
2022-11-29T12:27:01.599Z,48.60
2022-11-29T12:29:33.992Z,52.03
2022-11-29T12:32:20.148Z,55.97
2022-11-29T12:34:59.682Z,48.20
2022-11-29T12:37:37.559Z,49.77
2022-11-29T12:40:15.205Z,52.67
2022-11-29T12:42:53.729Z,50.87
2022-11-29T12:45:37.009Z,43.50
2022-11-29T12:48:16.027Z,46.00
2022-11-29T12:50:55.335Z,55.00
2022-11-29T12:53:34.878Z,49.37
2022-11-29T12:56:15.326Z,48.10
2022-11-29T12:58:54.828Z,51.83
2022-11-29T13:01:37.615Z,49.97
2022-11-29T13:04:16.290Z,48.57
2022-11-29T13:06:54.757Z,54.90
2022-11-29T13:09:47.505Z,50.80
2022-11-29T13:12:22.177Z,49.60
2022-11-29T13:14:57.166Z,45.10
2022-11-29T13:17:34.641Z,66.13
2022-11-29T13:20:15.441Z,49.03
2022-11-29T13:22:53.250Z,49.00
2022-11-29T13:25:25.534Z,52.63
2022-11-29T13:27:58.514Z,48.07
2022-11-29T13:30:27.173Z,44.80
2022-11-29T13:33:01.948Z,45.33
2022-11-29T13:35:39.325Z,45.00
2022-11-29T13:38:15.910Z,46.93
2022-11-29T13:40:53.232Z,46.50
2022-11-29T13:43:29.197Z,48.63
2022-11-29T13:46:05.697Z,41.00
2022-11-29T13:48:46.928Z,44.23
2022-11-29T13:51:28.488Z,44.00
2022-11-29T13:53:58.760Z,40.77
2022-11-29T13:56:32.632Z,47.27
2022-11-29T13:59:02.012Z,47.10
2022-11-29T14:01:30.561Z,39.60
2022-11-29T14:04:23.654Z,57.00
2022-11-29T14:07:02.047Z,40.90
2022-11-29T14:09:35.545Z,46.23
2022-11-29T14:12:18.170Z,46.43
2022-11-29T14:14:53.133Z,49.63
2022-11-29T14:17:36.972Z,46.17
2022-11-29T14:20:50.850Z,40.90
2022-11-29T14:23:35.641Z,43.00
2022-11-29T14:26:29.245Z,49.20
2022-11-29T14:28:58.081Z,51.23
2022-11-29T14:31:54.274Z,50.40
2022-11-29T14:34:38.847Z,43.03
2022-11-29T14:37:18.533Z,38.90
2022-11-29T14:39:50.704Z,45.10
2022-11-29T14:42:20.235Z,39.57
2022-11-29T14:44:51.978Z,40.20
2022-11-29T14:47:32.467Z,38.07
2022-11-29T14:50:06.432Z,41.10
2022-11-29T14:52:38.760Z,37.67
2022-11-29T14:55:10.478Z,40.80
2022-11-29T14:58:21.999Z,40.10
2022-11-29T15:01:11.002Z,42.37
2022-11-29T15:03:49.483Z,43.00
2022-11-29T15:06:26.991Z,42.50
2022-11-29T15:09:03.005Z,45.23
2022-11-29T15:11:51.670Z,40.93
2022-11-29T15:14:30.509Z,38.17
2022-11-29T15:17:11.748Z,37.50
2022-11-29T15:20:28.712Z,40.53
2022-11-29T15:23:00.955Z,42.03
2022-11-29T15:25:31.669Z,37.87
2022-11-29T15:28:02.911Z,46.43
2022-11-29T15:30:34.098Z,52.60
2022-11-29T15:33:05.537Z,101.50
2022-11-29T15:35:34.989Z,46.63
2022-11-29T15:38:03.684Z,46.67
2022-11-29T15:40:35.497Z,45.57
2022-11-29T15:43:20.180Z,46.20
2022-11-29T15:45:49.492Z,42.47
2022-11-29T15:48:20.470Z,44.00
2022-11-29T15:51:01.313Z,39.27
2022-11-29T15:53:35.402Z,43.50
2022-11-29T15:56:06.992Z,58.77
2022-11-29T15:58:37.718Z,46.30
2022-11-29T16:01:06.527Z,55.53
2022-11-29T16:03:39.272Z,49.87
2022-11-29T16:06:20.981Z,47.60
2022-11-29T16:08:50.827Z,43.40
2022-11-29T16:11:21.950Z,55.73
2022-11-29T16:14:05.297Z,44.50
2022-11-29T16:16:35.407Z,48.03
2022-11-29T16:19:11.868Z,41.43
2022-11-29T16:21:39.969Z,47.53
2022-11-29T16:24:19.446Z,51.23
2022-11-29T16:26:49.580Z,48.03
2022-11-29T16:29:24.702Z,44.17
2022-11-29T16:31:53.566Z,43.10
2022-11-29T16:34:27.515Z,47.77
2022-11-29T16:37:06.493Z,59.47
2022-11-29T16:39:35.458Z,60.13
2022-11-29T16:42:08.232Z,45.57
2022-11-29T16:45:27.468Z,54.40
2022-11-29T16:47:58.890Z,72.30
2022-11-29T16:50:28.612Z,46.50
2022-11-29T16:52:57.237Z,40.60
2022-11-29T16:55:25.507Z,39.47
2022-11-29T16:57:53.633Z,42.70
2022-11-29T17:00:31.675Z,71.10
2022-11-29T17:03:00.338Z,88.73
2022-11-29T17:05:28.645Z,83.90
2022-11-29T17:07:57.141Z,54.67
2022-11-29T17:10:26.469Z,49.10
2022-11-29T17:12:54.854Z,49.70
2022-11-29T17:15:22.810Z,42.03
2022-11-29T17:17:52.123Z,43.10
2022-11-29T17:20:20.056Z,49.60
2022-11-29T17:22:48.010Z,69.27
2022-11-29T17:25:16.035Z,55.07
2022-11-29T17:27:43.963Z,44.50
2022-11-29T17:30:12.934Z,49.83
2022-11-29T17:32:40.904Z,43.70
2022-11-29T17:35:10.738Z,52.30
2022-11-29T17:37:38.633Z,44.60
2022-11-29T17:40:07.808Z,41.00
2022-11-29T17:42:35.743Z,53.33
2022-11-29T17:45:04.125Z,49.40
2022-11-29T17:47:33.278Z,52.27
2022-11-29T17:50:01.214Z,48.70
2022-11-29T17:52:30.570Z,45.10
2022-11-29T17:54:58.526Z,46.80
2022-11-29T17:57:26.521Z,49.60
2022-11-29T17:59:54.480Z,57.90
2022-11-29T18:02:22.620Z,56.20
2022-11-29T18:04:50.732Z,56.63
2022-11-29T18:07:18.871Z,61.83
2022-11-29T18:09:49.025Z,47.43
2022-11-29T18:12:17.054Z,45.93
2022-11-29T18:14:45.012Z,73.93
2022-11-29T18:17:13.007Z,58.23
2022-11-29T18:19:42.133Z,53.10
2022-11-29T18:22:10.105Z,53.27
2022-11-29T18:24:38.182Z,50.67
2022-11-29T18:27:07.766Z,49.23
2022-11-29T18:29:39.128Z,48.27
2022-11-29T18:32:07.400Z,51.00
2022-11-29T18:34:35.352Z,45.90
2022-11-29T18:37:03.323Z,46.40
2022-11-29T18:39:31.341Z,51.50
2022-11-29T18:41:59.269Z,45.47
2022-11-29T18:44:30.148Z,47.13
2022-11-29T18:46:58.744Z,57.87
2022-11-29T18:49:26.733Z,49.03
2022-11-29T18:51:54.814Z,45.90
2022-11-29T18:54:22.837Z,50.87
2022-11-29T18:56:51.889Z,49.20
2022-11-29T18:59:19.937Z,53.57
2022-11-29T19:01:49.876Z,51.17
2022-11-29T19:04:19.572Z,57.47
2022-11-29T19:06:47.927Z,46.03
2022-11-29T19:09:17.882Z,45.70
2022-11-29T19:11:45.845Z,47.17
2022-11-29T19:14:14.098Z,49.30
2022-11-29T19:16:44.239Z,53.10
2022-11-29T19:19:14.331Z,47.77
2022-11-29T19:21:42.601Z,55.20
2022-11-29T19:24:15.058Z,49.87
2022-11-29T19:26:45.368Z,71.27
2022-11-29T19:29:14.510Z,46.27
2022-11-29T19:31:43.073Z,51.03
2022-11-29T19:34:11.346Z,63.20
2022-11-29T19:36:43.067Z,54.87
2022-11-29T19:39:13.186Z,47.90
2022-11-29T19:41:43.556Z,47.27
2022-11-29T19:44:11.925Z,44.30
2022-11-29T19:46:42.636Z,45.47
2022-11-29T19:49:11.518Z,50.90
2022-11-29T19:51:40.924Z,49.87
2022-11-29T19:54:10.450Z,58.87
2022-11-29T19:56:39.363Z,58.53
2022-11-29T19:59:07.854Z,50.93
2022-11-29T20:01:43.618Z,56.57
2022-11-29T20:04:13.335Z,48.13
2022-11-29T20:06:42.803Z,53.10
2022-11-29T20:09:11.367Z,52.77
2022-11-29T20:11:39.482Z,56.47
2022-11-29T20:14:09.011Z,50.37
2022-11-29T20:16:38.915Z,52.13
2022-11-29T20:19:11.202Z,55.13
2022-11-29T20:21:44.617Z,51.23
2022-11-29T20:24:14.179Z,49.10
2022-11-29T20:26:43.902Z,52.37
2022-11-29T20:29:13.017Z,55.70
2022-11-29T20:31:49.120Z,65.37
2022-11-29T20:34:18.976Z,54.03
2022-11-29T20:37:14.931Z,61.90
2022-11-29T20:39:50.688Z,52.77
2022-11-29T20:42:45.381Z,48.23
2022-11-29T20:45:15.673Z,140.57
2022-11-29T20:47:51.022Z,53.17
2022-11-29T20:50:23.587Z,50.93
2022-11-29T20:53:07.649Z,59.10
2022-11-29T20:55:42.455Z,53.07
2022-11-29T20:58:14.301Z,55.00
2022-11-29T21:00:42.774Z,56.00
2022-11-29T21:03:13.964Z,53.67
2022-11-29T21:05:41.969Z,55.53
2022-11-29T21:08:12.205Z,54.30
2022-11-29T21:10:40.203Z,50.77
2022-11-29T21:13:09.032Z,56.37
2022-11-29T21:15:37.584Z,57.40
2022-11-29T21:18:06.242Z,49.83
2022-11-29T21:20:34.561Z,51.87
2022-11-29T21:23:09.187Z,54.27
2022-11-29T21:25:47.419Z,60.47
2022-11-29T21:28:17.047Z,58.43
2022-11-29T21:30:45.673Z,61.17
2022-11-29T21:33:14.109Z,52.50
2022-11-29T21:35:42.138Z,52.80
2022-11-29T21:38:15.061Z,57.80
2022-11-29T21:40:44.404Z,59.43
2022-11-29T21:43:12.344Z,57.93
2022-11-29T21:45:40.350Z,57.93
2022-11-29T21:48:28.474Z,58.93
2022-11-29T21:50:57.134Z,59.30
2022-11-29T21:53:25.193Z,51.17
2022-11-29T21:55:58.780Z,52.97
2022-11-29T21:58:27.194Z,52.83
2022-11-29T22:00:55.321Z,55.13
2022-11-29T22:03:23.364Z,63.13
2022-11-29T22:05:51.284Z,55.60
2022-11-29T22:08:20.135Z,61.57
2022-11-29T22:10:48.809Z,57.57
2022-11-29T22:13:18.176Z,62.30
2022-11-29T22:15:46.107Z,61.37
2022-11-29T22:18:14.059Z,58.30
2022-11-29T22:20:42.007Z,56.43
2022-11-29T22:23:09.932Z,61.13
2022-11-29T22:25:37.851Z,62.40
2022-11-29T22:28:06.131Z,61.90
2022-11-29T22:30:35.798Z,65.20
2022-11-29T22:33:06.664Z,60.90
2022-11-29T22:35:43.743Z,65.37
2022-11-29T22:38:11.708Z,64.80
2022-11-29T22:40:40.463Z,61.47
2022-11-29T22:43:08.384Z,53.57
2022-11-29T22:45:37.681Z,57.83
2022-11-29T22:48:05.922Z,60.37
2022-11-29T22:50:33.850Z,55.23
2022-11-29T22:53:01.757Z,61.83
2022-11-29T22:55:30.021Z,53.20
2022-11-29T22:57:57.937Z,62.70
2022-11-29T23:00:26.162Z,63.00
2022-11-29T23:02:57.637Z,55.70
2022-11-29T23:05:30.791Z,55.10
2022-11-29T23:08:00.325Z,59.47
2022-11-29T23:10:28.339Z,56.20
2022-11-29T23:12:56.305Z,59.30
2022-11-29T23:15:24.236Z,57.23
2022-11-29T23:17:52.177Z,61.17
2022-11-29T23:20:21.587Z,61.23
2022-11-29T23:22:49.539Z,60.27
2022-11-29T23:25:17.642Z,62.23
2022-11-29T23:27:45.647Z,62.47
2022-11-29T23:30:14.883Z,62.77
2022-11-29T23:32:42.854Z,63.70
2022-11-29T23:35:11.080Z,61.63
2022-11-29T23:37:40.362Z,59.93
2022-11-29T23:40:09.813Z,57.20
2022-11-29T23:42:37.871Z,60.37
2022-11-29T23:45:06.748Z,62.63
2022-11-29T23:47:34.677Z,60.00
2022-11-29T23:50:02.604Z,59.40
2022-11-29T23:52:30.595Z,60.33
2022-11-29T23:54:59.894Z,62.23
2022-11-29T23:57:29.886Z,55.90
2022-11-29T23:59:58.153Z,60.57
